createdAt,value
2023-09-24T00:00:22.354Z,98240.84
2023-09-24T00:03:27.684Z,98246.09
2023-09-24T00:06:30.284Z,98238.34
2023-09-24T00:09:32.725Z,98232.03
2023-09-24T00:12:35.090Z,98229.75
2023-09-24T00:15:37.471Z,98214.91
2023-09-24T00:18:40.080Z,98253.44
2023-09-24T00:21:42.475Z,98265.88
2023-09-24T00:24:45.037Z,98256.16
2023-09-24T00:27:47.478Z,98255.63
2023-09-24T00:30:52.003Z,98251.09
2023-09-24T00:33:54.629Z,98248.63
2023-09-24T00:36:59.333Z,98246.63
2023-09-24T00:40:02.245Z,98232.75
2023-09-24T00:43:04.964Z,98231.28
2023-09-24T00:46:11.450Z,98242.31
2023-09-24T00:49:16.929Z,98239.72
2023-09-24T00:52:19.332Z,98242.31
2023-09-24T00:55:22.342Z,98230.63
2023-09-24T00:58:27.279Z,98198.06
2023-09-24T01:01:30.936Z,98230.16
2023-09-24T01:04:34.744Z,98238.59
2023-09-24T01:07:37.912Z,98227.00
2023-09-24T01:10:40.984Z,98224.31
2023-09-24T01:13:44.942Z,98217.66
2023-09-24T01:16:48.480Z,98199.25
2023-09-24T01:19:54.094Z,98200.47
2023-09-24T01:22:56.620Z,98207.69
2023-09-24T01:25:59.089Z,98220.66
2023-09-24T01:29:01.501Z,98222.78
2023-09-24T01:32:06.105Z,98228.06
2023-09-24T01:35:12.946Z,98230.47
2023-09-24T01:38:15.537Z,98250.16
2023-09-24T01:41:17.929Z,98253.41
2023-09-24T01:44:22.773Z,98258.28
2023-09-24T01:47:25.884Z,98253.19
2023-09-24T01:50:31.082Z,98259.81
2023-09-24T01:53:34.713Z,98250.63
2023-09-24T01:56:37.587Z,98245.53
2023-09-24T01:59:39.939Z,98246.28
2023-09-24T02:02:44.057Z,98239.88
2023-09-24T02:05:47.478Z,98243.59
2023-09-24T02:08:49.944Z,98249.44
2023-09-24T02:11:55.668Z,98238.75
2023-09-24T02:14:58.229Z,98238.97
2023-09-24T02:18:01.476Z,98244.47
2023-09-24T02:21:08.654Z,98245.53
2023-09-24T02:24:11.787Z,98225.94
2023-09-24T02:27:14.240Z,98222.22
2023-09-24T02:30:17.308Z,98232.69
2023-09-24T02:33:20.140Z,98244.22
2023-09-24T02:36:22.594Z,98251.03
2023-09-24T02:39:24.909Z,98249.34
2023-09-24T02:42:28.689Z,98250.63
2023-09-24T02:45:31.765Z,98244.72
2023-09-24T02:48:34.803Z,98251.34
2023-09-24T02:51:37.505Z,98257.91
2023-09-24T02:54:40.378Z,98270.34
2023-09-24T02:57:47.826Z,98252.69
2023-09-24T03:00:52.406Z,98280.31
2023-09-24T03:03:55.202Z,98277.38
2023-09-24T03:06:57.670Z,98280.72
2023-09-24T03:10:00.184Z,98257.78
2023-09-24T03:13:04.121Z,98272.13
2023-09-24T03:16:07.640Z,98278.19
2023-09-24T03:19:10.636Z,98288.75
2023-09-24T03:22:13.104Z,98285.84
2023-09-24T03:25:22.744Z,98276.31
2023-09-24T03:28:25.348Z,98295.63
2023-09-24T03:31:27.797Z,98294.81
2023-09-24T03:34:30.100Z,98299.47
2023-09-24T03:37:32.953Z,98301.22
2023-09-24T03:40:36.013Z,98310.41
2023-09-24T03:43:38.640Z,98305.63
2023-09-24T03:46:41.134Z,98298.34
2023-09-24T03:49:44.026Z,98313.06
2023-09-24T03:52:51.188Z,98317.00
2023-09-24T03:55:54.743Z,98322.03
2023-09-24T03:58:57.169Z,98307.47
2023-09-24T04:01:59.525Z,98317.25
2023-09-24T04:05:01.875Z,98320.75
2023-09-24T04:08:07.340Z,98319.13
2023-09-24T04:11:13.620Z,98323.09
2023-09-24T04:14:16.217Z,98305.34
2023-09-24T04:17:19.157Z,98330.38
2023-09-24T04:20:22.450Z,98320.31
2023-09-24T04:23:25.774Z,98329.34
2023-09-24T04:26:28.323Z,98328.56
2023-09-24T04:29:30.737Z,98329.34
2023-09-24T04:32:33.129Z,98342.34
2023-09-24T04:35:35.567Z,98301.19
2023-09-24T04:38:38.758Z,98346.09
2023-09-24T04:41:41.658Z,98353.59
2023-09-24T04:44:44.092Z,98355.06
2023-09-24T04:47:47.405Z,98356.31
2023-09-24T04:50:50.149Z,98361.31
2023-09-24T04:53:53.855Z,98362.31
2023-09-24T04:56:56.344Z,98365.59
2023-09-24T04:59:58.688Z,98370.72
2023-09-24T05:03:01.016Z,98368.16
2023-09-24T05:06:06.744Z,98386.84
2023-09-24T05:09:09.642Z,98386.41
2023-09-24T05:12:13.998Z,98387.69
2023-09-24T05:15:16.362Z,98392.56
2023-09-24T05:18:20.390Z,98400.56
2023-09-24T05:21:24.040Z,98397.19
2023-09-24T05:24:26.413Z,98396.75
2023-09-24T05:27:30.792Z,98396.84
2023-09-24T05:30:33.240Z,98404.63
2023-09-24T05:33:35.896Z,98408.81
2023-09-24T05:36:38.501Z,98401.50
2023-09-24T05:39:40.918Z,98420.31
2023-09-24T05:42:43.719Z,98420.66
2023-09-24T05:45:50.408Z,98424.34
2023-09-24T05:48:56.842Z,98419.84
2023-09-24T05:51:59.176Z,98429.25
2023-09-24T05:55:09.493Z,98436.31
2023-09-24T05:58:21.679Z,98429.84
2023-09-24T06:01:24.965Z,98438.44
2023-09-24T06:04:27.855Z,98440.97
2023-09-24T06:07:30.451Z,98439.38
2023-09-24T06:10:33.282Z,98448.88
2023-09-24T06:13:35.802Z,98458.97
2023-09-24T06:16:38.506Z,98459.78
2023-09-24T06:19:41.044Z,98461.41
2023-09-24T06:22:44.803Z,98460.84
2023-09-24T06:25:47.911Z,98468.63
2023-09-24T06:29:04.171Z,98469.78
2023-09-24T06:32:12.934Z,98471.16
2023-09-24T06:35:15.459Z,98474.88
2023-09-24T06:38:17.871Z,98489.66
2023-09-24T06:41:20.302Z,98466.78
2023-09-24T06:44:25.979Z,98487.78
2023-09-24T06:47:29.632Z,98480.94
2023-09-24T06:50:32.239Z,98490.81
2023-09-24T06:53:43.455Z,98487.53
2023-09-24T06:56:46.657Z,98491.84
2023-09-24T06:59:49.293Z,98499.97
2023-09-24T07:02:52.125Z,98498.94
2023-09-24T07:05:55.432Z,98507.97
2023-09-24T07:08:58.439Z,98519.59
2023-09-24T07:12:00.934Z,98519.59
2023-09-24T07:15:03.493Z,98510.56
2023-09-24T07:18:06.011Z,98500.69
2023-09-24T07:21:19.572Z,98513.66
2023-09-24T07:24:26.254Z,98521.22
2023-09-24T07:27:28.687Z,98534.03
2023-09-24T07:30:34.817Z,98540.19
2023-09-24T07:33:37.153Z,98537.25
2023-09-24T07:36:51.857Z,98546.09
2023-09-24T07:40:06.735Z,98535.03
2023-09-24T07:43:09.904Z,98547.16
2023-09-24T07:46:14.198Z,98544.03
2023-09-24T07:49:16.985Z,98547.13
2023-09-24T07:52:19.380Z,98535.16
2023-09-24T07:55:21.726Z,98543.41
2023-09-24T07:58:27.120Z,98537.03
2023-09-24T08:01:29.562Z,98549.69
2023-09-24T08:04:31.966Z,98550.63
2023-09-24T08:07:37.634Z,98556.31
2023-09-24T08:10:40.146Z,98558.19
2023-09-24T08:13:42.773Z,98561.19
2023-09-24T08:16:46.084Z,98513.56
2023-09-24T08:19:48.555Z,98571.31
2023-09-24T08:22:50.907Z,98556.44
2023-09-24T08:25:53.393Z,98571.16
2023-09-24T08:28:55.823Z,98568.84
2023-09-24T08:31:58.470Z,98566.84
2023-09-24T08:35:02.091Z,98577.53
2023-09-24T08:38:05.109Z,98568.97
2023-09-24T08:41:14.609Z,98582.56
2023-09-24T08:44:18.947Z,98575.22
2023-09-24T08:47:23.423Z,98572.78
2023-09-24T08:50:26.322Z,98554.06
2023-09-24T08:53:31.694Z,98576.63
2023-09-24T08:56:34.160Z,98576.28
2023-09-24T08:59:37.135Z,98580.13
2023-09-24T09:02:43.112Z,98572.91
2023-09-24T09:05:45.830Z,98579.56
2023-09-24T09:08:52.773Z,98578.50
2023-09-24T09:11:55.925Z,98582.78
2023-09-24T09:14:58.990Z,98574.44
2023-09-24T09:18:02.707Z,98580.81
2023-09-24T09:21:05.179Z,98569.56
2023-09-24T09:24:22.886Z,98559.09
2023-09-24T09:27:35.002Z,98568.25
2023-09-24T09:30:37.365Z,98557.22
2023-09-24T09:33:44.287Z,98542.50
2023-09-24T09:36:46.772Z,98554.78
2023-09-24T09:39:51.898Z,98557.81
2023-09-24T09:42:56.716Z,98561.88
2023-09-24T09:45:59.300Z,98565.13
2023-09-24T09:49:11.973Z,98552.09
2023-09-24T09:52:20.313Z,98557.81
2023-09-24T09:55:24.413Z,98566.63
2023-09-24T09:58:29.433Z,98558.13
2023-09-24T10:01:33.352Z,98563.56
2023-09-24T10:04:37.493Z,98542.78
2023-09-24T10:07:41.959Z,98547.75
2023-09-24T10:10:44.486Z,98563.59
2023-09-24T10:13:53.583Z,98562.28
2023-09-24T10:16:55.993Z,98555.88
2023-09-24T10:20:09.803Z,98559.97
2023-09-24T10:23:30.422Z,98569.34
2023-09-24T10:26:50.629Z,98568.34
2023-09-24T10:29:55.187Z,98567.53
2023-09-24T10:32:57.807Z,98557.63
2023-09-24T10:36:19.409Z,98552.28
2023-09-24T10:39:21.973Z,98545.88
2023-09-24T10:42:24.344Z,98511.69
2023-09-24T10:45:26.999Z,98543.28
2023-09-24T10:48:44.243Z,98542.22
2023-09-24T10:51:59.812Z,98533.13
2023-09-24T10:55:02.118Z,98528.22
2023-09-24T10:58:15.122Z,98538.94
2023-09-24T11:01:17.823Z,98525.63
2023-09-24T11:04:30.232Z,98531.91
2023-09-24T11:07:33.103Z,98491.38
2023-09-24T11:10:36.126Z,98523.13
2023-09-24T11:13:40.853Z,98524.75
2023-09-24T11:16:43.648Z,98529.72
2023-09-24T11:19:50.590Z,98525.44
2023-09-24T11:23:12.817Z,98522.03
2023-09-24T11:26:15.265Z,98503.03
2023-09-24T11:29:17.689Z,98523.91
2023-09-24T11:32:27.725Z,98532.03
2023-09-24T11:35:30.291Z,98532.34
2023-09-24T11:38:34.547Z,98535.59
2023-09-24T11:41:37.107Z,98539.91
2023-09-24T11:44:49.242Z,98544.19
2023-09-24T11:47:52.491Z,98538.63
2023-09-24T11:51:03.556Z,98515.22
2023-09-24T11:54:06.742Z,98519.59
2023-09-24T11:57:12.002Z,98490.06
2023-09-24T12:00:16.109Z,98505.16
2023-09-24T12:03:19.005Z,98511.63
2023-09-24T12:06:22.220Z,98514.78
2023-09-24T12:09:24.661Z,98502.00
2023-09-24T12:12:27.114Z,98488.28
2023-09-24T12:15:31.099Z,98497.28
2023-09-24T12:18:33.993Z,98473.19
2023-09-24T12:21:36.717Z,98500.47
2023-09-24T12:24:39.640Z,98503.28
2023-09-24T12:27:42.651Z,98487.47
2023-09-24T12:30:46.472Z,98498.94
2023-09-24T12:33:49.107Z,98478.47
2023-09-24T12:36:52.081Z,98512.84
2023-09-24T12:39:55.052Z,98504.72
2023-09-24T12:42:57.906Z,98521.75
2023-09-24T12:46:08.512Z,98525.25
2023-09-24T12:49:11.308Z,98503.72
2023-09-24T12:52:13.894Z,98484.31
2023-09-24T12:55:17.972Z,98518.44
2023-09-24T12:58:20.816Z,98512.75
2023-09-24T13:01:24.473Z,98512.81
2023-09-24T13:04:27.675Z,98511.38
2023-09-24T13:07:31.880Z,98513.06
2023-09-24T13:10:35.230Z,98485.72
2023-09-24T13:13:38.402Z,98504.13
2023-09-24T13:16:48.673Z,98504.97
2023-09-24T13:19:52.273Z,98508.75
2023-09-24T13:22:55.073Z,98515.44
2023-09-24T13:25:57.906Z,98505.81
2023-09-24T13:29:01.724Z,98515.22
2023-09-24T13:32:05.188Z,98515.44
2023-09-24T13:35:09.306Z,98518.97
2023-09-24T13:38:12.869Z,98521.44
2023-09-24T13:41:15.567Z,98533.00
2023-09-24T13:44:18.949Z,98528.69
2023-09-24T13:47:22.397Z,98517.16
2023-09-24T13:50:25.392Z,98501.88
2023-09-24T13:53:28.827Z,98502.63
2023-09-24T13:56:32.176Z,98505.84
2023-09-24T13:59:35.251Z,98506.94
2023-09-24T14:02:38.776Z,98516.28
2023-09-24T14:05:42.168Z,98521.44
2023-09-24T14:09:04.522Z,98505.81
2023-09-24T14:12:23.610Z,98508.50
2023-09-24T14:15:27.512Z,98502.47
2023-09-24T14:18:30.814Z,98487.41
2023-09-24T14:21:34.141Z,98482.13
2023-09-24T14:24:39.152Z,98485.84
2023-09-24T14:27:44.655Z,98493.59
2023-09-24T14:30:48.162Z,98485.25
2023-09-24T14:33:53.878Z,98492.22
2023-09-24T14:36:57.337Z,98494.91
2023-09-24T14:40:00.851Z,98495.66
2023-09-24T14:43:04.408Z,98493.75
2023-09-24T14:46:12.196Z,98493.72
2023-09-24T14:49:15.256Z,98497.44
2023-09-24T14:52:18.124Z,98497.22
2023-09-24T14:55:21.667Z,98489.16
2023-09-24T14:58:25.179Z,98430.53
2023-09-24T15:01:28.609Z,98486.25
2023-09-24T15:04:32.125Z,98485.13
2023-09-24T15:07:35.068Z,98489.16
2023-09-24T15:10:41.608Z,98493.19
2023-09-24T15:13:45.607Z,98492.66
2023-09-24T15:16:48.816Z,98493.94
2023-09-24T15:19:52.345Z,98491.13
2023-09-24T15:22:55.998Z,98491.03
2023-09-24T15:26:00.505Z,98496.28
2023-09-24T15:29:03.513Z,98495.25
2023-09-24T15:32:06.942Z,98500.31
2023-09-24T15:35:11.411Z,98498.69
2023-09-24T15:38:16.499Z,98489.16
2023-09-24T15:41:20.985Z,98505.69
2023-09-24T15:44:24.664Z,98509.44
2023-09-24T15:47:27.819Z,98509.69
2023-09-24T15:50:33.579Z,98506.09
2023-09-24T15:53:36.709Z,98514.50
2023-09-24T15:56:39.791Z,98514.50
2023-09-24T15:59:43.020Z,98519.34
2023-09-24T16:02:46.650Z,98483.03
2023-09-24T16:05:50.014Z,98513.84
2023-09-24T16:08:54.213Z,98525.91
2023-09-24T16:11:57.725Z,98511.56
2023-09-24T16:15:01.582Z,98526.91
2023-09-24T16:18:05.268Z,98528.97
2023-09-24T16:21:08.132Z,98531.59
2023-09-24T16:24:11.494Z,98532.66
2023-09-24T16:27:15.835Z,98527.53
2023-09-24T16:30:20.029Z,98527.50
2023-09-24T16:33:23.399Z,98535.22
2023-09-24T16:36:27.289Z,98544.06
2023-09-24T16:39:30.311Z,98550.19
2023-09-24T16:42:37.976Z,98558.50
2023-09-24T16:45:54.357Z,98562.66
2023-09-24T16:48:57.892Z,98560.41
2023-09-24T16:52:01.215Z,98561.41
2023-09-24T16:55:04.363Z,98574.50
2023-09-24T16:58:08.514Z,98573.59
2023-09-24T17:01:19.342Z,98563.31
2023-09-24T17:04:22.508Z,98561.03
2023-09-24T17:07:26.235Z,98573.78
2023-09-24T17:10:29.567Z,98574.94
2023-09-24T17:13:33.657Z,98574.81
2023-09-24T17:16:38.732Z,98567.22
2023-09-24T17:19:42.149Z,98572.78
2023-09-24T17:22:45.213Z,98578.97
2023-09-24T17:25:48.736Z,98575.16
2023-09-24T17:28:55.602Z,98591.72
2023-09-24T17:31:59.710Z,98554.59
2023-09-24T17:35:05.773Z,98587.00
2023-09-24T17:38:09.471Z,98588.06
2023-09-24T17:41:20.516Z,98589.69
2023-09-24T17:44:26.678Z,98603.44
2023-09-24T17:47:30.087Z,98603.25
2023-09-24T17:50:33.373Z,98599.84
2023-09-24T17:53:43.614Z,98603.81
2023-09-24T17:56:48.409Z,98608.69
2023-09-24T17:59:52.305Z,98605.69
2023-09-24T18:02:56.377Z,98606.50
2023-09-24T18:06:03.096Z,98605.13
2023-09-24T18:09:10.450Z,98612.63
2023-09-24T18:12:13.977Z,98613.91
2023-09-24T18:15:17.383Z,98613.09
2023-09-24T18:18:24.143Z,98614.16
2023-09-24T18:21:27.856Z,98623.81
2023-09-24T18:24:35.201Z,98622.28
2023-09-24T18:27:40.013Z,98631.38
2023-09-24T18:30:44.176Z,98629.72
2023-09-24T18:33:48.332Z,98630.78
2023-09-24T18:36:53.916Z,98631.75
2023-09-24T18:40:02.204Z,98627.47
2023-09-24T18:43:06.873Z,98637.50
2023-09-24T18:46:11.479Z,98635.53
2023-09-24T18:49:17.748Z,98643.59
2023-09-24T18:52:23.253Z,98642.31
2023-09-24T18:55:28.132Z,98639.13
2023-09-24T18:58:34.200Z,98636.22
2023-09-24T19:01:38.222Z,98639.25
2023-09-24T19:04:46.176Z,98635.78
2023-09-24T19:07:50.944Z,98634.88
2023-09-24T19:10:55.284Z,98621.81
2023-09-24T19:13:59.165Z,98641.06
2023-09-24T19:17:04.396Z,98637.84
2023-09-24T19:20:09.713Z,98644.63
2023-09-24T19:23:14.640Z,98640.88
2023-09-24T19:26:20.573Z,98644.56
2023-09-24T19:29:28.562Z,98633.28
2023-09-24T19:32:32.366Z,98643.41
2023-09-24T19:35:38.449Z,98638.56
2023-09-24T19:38:42.365Z,98643.59
2023-09-24T19:41:47.680Z,98648.88
2023-09-24T19:44:52.675Z,98637.25
2023-09-24T19:47:56.831Z,98616.28
2023-09-24T19:51:02.223Z,98650.81
2023-09-24T19:54:06.948Z,98645.03
2023-09-24T19:57:12.435Z,98645.97
2023-09-24T20:00:17.712Z,98644.69
2023-09-24T20:03:23.309Z,98641.75
2023-09-24T20:06:26.723Z,98625.19
2023-09-24T20:09:32.581Z,98652.41
2023-09-24T20:12:36.096Z,98640.13
2023-09-24T20:15:39.470Z,98648.50
2023-09-24T20:18:43.420Z,98642.81
2023-09-24T20:21:46.994Z,98635.41
2023-09-24T20:24:52.127Z,98625.41
2023-09-24T20:27:56.010Z,98640.88
2023-09-24T20:31:01.138Z,98646.56
2023-09-24T20:34:05.245Z,98639.25
2023-09-24T20:37:08.720Z,98638.09
2023-09-24T20:40:12.545Z,98637.22
2023-09-24T20:43:16.806Z,98630.22
2023-09-24T20:46:20.888Z,98624.94
2023-09-24T20:49:23.980Z,98644.34
2023-09-24T20:52:26.653Z,98636.56
2023-09-24T20:55:29.365Z,98635.75
2023-09-24T20:58:32.104Z,98634.13
2023-09-24T21:01:34.477Z,98638.44
2023-09-24T21:04:37.811Z,98633.56
2023-09-24T21:07:42.100Z,98633.22
2023-09-24T21:10:44.458Z,98630.31
2023-09-24T21:13:46.791Z,98642.09
2023-09-24T21:16:49.259Z,98635.09
2023-09-24T21:19:51.660Z,98636.66
2023-09-24T21:22:53.926Z,98621.75
2023-09-24T21:26:06.885Z,98641.88
2023-09-24T21:29:09.444Z,98642.38
2023-09-24T21:32:11.837Z,98640.44
2023-09-24T21:35:14.148Z,98633.69
2023-09-24T21:38:17.564Z,98638.00
2023-09-24T21:41:20.195Z,98623.22
2023-09-24T21:44:22.537Z,98622.66
2023-09-24T21:47:25.050Z,98633.13
2023-09-24T21:50:27.385Z,98633.13
2023-09-24T21:53:30.343Z,98620.78
2023-09-24T21:56:32.713Z,98586.16
2023-09-24T21:59:35.118Z,98614.84
2023-09-24T22:02:37.728Z,98606.78
2023-09-24T22:05:44.020Z,98619.16
2023-09-24T22:08:46.373Z,98629.88
2023-09-24T22:11:49.044Z,98622.41
2023-09-24T22:14:51.358Z,98625.88
2023-09-24T22:17:53.678Z,98617.75
2023-09-24T22:20:57.226Z,98617.50
2023-09-24T22:24:00.980Z,98645.94
2023-09-24T22:27:03.700Z,98645.38
2023-09-24T22:30:06.946Z,98646.75
2023-09-24T22:33:10.254Z,98625.53
2023-09-24T22:36:20.187Z,98634.41
2023-09-24T22:39:22.623Z,98642.69
2023-09-24T22:42:25.143Z,98631.16
2023-09-24T22:45:27.688Z,98627.91
2023-09-24T22:48:30.133Z,98630.00
2023-09-24T22:51:33.130Z,98631.31
2023-09-24T22:54:36.988Z,98622.69
2023-09-24T22:57:39.925Z,98614.91
2023-09-24T23:00:42.686Z,98621.31
2023-09-24T23:03:45.345Z,98625.88
2023-09-24T23:06:49.688Z,98620.00
2023-09-24T23:09:52.058Z,98622.69
2023-09-24T23:12:54.382Z,98621.31
2023-09-24T23:15:56.965Z,98622.69
2023-09-24T23:19:00.090Z,98621.97
2023-09-24T23:22:02.436Z,98621.97
2023-09-24T23:25:05.152Z,98615.25
2023-09-24T23:28:07.991Z,98613.03
2023-09-24T23:31:10.857Z,98613.75
2023-09-24T23:34:14.141Z,98626.31
2023-09-24T23:37:16.580Z,98624.97
2023-09-24T23:40:24.400Z,98624.13
2023-09-24T23:43:27.484Z,98625.78
2023-09-24T23:46:30.012Z,98634.38
2023-09-24T23:49:32.488Z,98633.91
2023-09-24T23:52:34.939Z,98634.72
2023-09-24T23:55:37.414Z,98626.09
2023-09-24T23:58:39.918Z,98626.88
